createdAt,value
2023-08-11T00:00:14.411Z,3.90
2023-08-11T00:00:46.458Z,4.07
2023-08-11T00:01:18.710Z,3.93
2023-08-11T00:01:50.879Z,3.70
2023-08-11T00:02:22.960Z,3.53
2023-08-11T00:02:55.038Z,3.63
2023-08-11T00:03:27.219Z,3.33
2023-08-11T00:03:59.336Z,4.07
2023-08-11T00:04:31.542Z,3.93
2023-08-11T00:05:04.488Z,4.00
2023-08-11T00:05:38.039Z,4.03
2023-08-11T00:06:10.344Z,4.10
2023-08-11T00:06:42.346Z,4.13
2023-08-11T00:07:14.382Z,3.60
2023-08-11T00:07:46.490Z,3.87
2023-08-11T00:08:18.524Z,4.13
2023-08-11T00:08:50.537Z,4.07
2023-08-11T00:09:22.664Z,4.10
2023-08-11T00:09:54.711Z,4.30
2023-08-11T00:10:26.740Z,4.17
2023-08-11T00:10:58.822Z,4.30
2023-08-11T00:11:30.871Z,3.90
2023-08-11T00:12:03.148Z,3.80
2023-08-11T00:12:35.250Z,3.87
2023-08-11T00:13:07.628Z,4.03
2023-08-11T00:13:41.254Z,4.23
2023-08-11T00:14:13.335Z,4.33
2023-08-11T00:14:45.492Z,4.10
2023-08-11T00:15:17.562Z,3.97
2023-08-11T00:15:49.738Z,4.13
2023-08-11T00:16:24.947Z,3.93
2023-08-11T00:16:56.978Z,3.57
2023-08-11T00:17:29.080Z,3.87
2023-08-11T00:18:01.889Z,3.73
2023-08-11T00:18:34.028Z,3.57
2023-08-11T00:19:06.057Z,3.77
2023-08-11T00:19:38.034Z,3.83
2023-08-11T00:20:10.583Z,4.23
2023-08-11T00:20:42.856Z,3.90
2023-08-11T00:21:14.955Z,4.20
2023-08-11T00:21:47.154Z,4.30
2023-08-11T00:22:19.292Z,4.83
2023-08-11T00:22:51.347Z,4.47
2023-08-11T00:23:23.391Z,4.37
2023-08-11T00:23:55.497Z,4.07
2023-08-11T00:24:27.639Z,4.17
2023-08-11T00:24:59.921Z,3.80
2023-08-11T00:25:32.057Z,4.20
2023-08-11T00:26:04.112Z,4.17
2023-08-11T00:26:36.166Z,4.67
2023-08-11T00:27:08.563Z,4.63
2023-08-11T00:27:40.843Z,4.27
2023-08-11T00:28:12.871Z,4.37
2023-08-11T00:28:46.341Z,4.23
2023-08-11T00:29:18.523Z,4.30
2023-08-11T00:29:51.166Z,4.30
2023-08-11T00:30:23.179Z,4.27
2023-08-11T00:30:55.276Z,4.60
2023-08-11T00:31:27.425Z,4.33
2023-08-11T00:31:59.493Z,4.23
2023-08-11T00:32:31.627Z,3.93
2023-08-11T00:33:03.980Z,4.17
2023-08-11T00:33:36.060Z,4.57
2023-08-11T00:34:08.086Z,4.33
2023-08-11T00:34:40.815Z,4.50
2023-08-11T00:35:12.913Z,4.47
2023-08-11T00:35:44.928Z,4.17
2023-08-11T00:36:16.955Z,4.33
2023-08-11T00:36:48.994Z,4.33
2023-08-11T00:37:20.995Z,4.17
2023-08-11T00:37:53.152Z,4.13
2023-08-11T00:38:38.097Z,4.57
2023-08-11T00:39:10.209Z,4.40
2023-08-11T00:39:42.250Z,4.70
2023-08-11T00:40:14.727Z,4.13
2023-08-11T00:40:46.862Z,4.20
2023-08-11T00:41:18.972Z,4.20
2023-08-11T00:41:51.100Z,4.17
2023-08-11T00:42:23.088Z,4.23
2023-08-11T00:42:55.086Z,4.07
2023-08-11T00:43:27.133Z,4.00
2023-08-11T00:44:00.778Z,4.27
2023-08-11T00:44:33.146Z,4.07
2023-08-11T00:45:06.479Z,3.93
2023-08-11T00:45:39.258Z,3.80
2023-08-11T00:46:13.160Z,4.50
2023-08-11T00:46:45.537Z,3.90
2023-08-11T00:47:17.956Z,3.90
2023-08-11T00:47:50.348Z,3.83
2023-08-11T00:48:22.456Z,4.33
2023-08-11T00:48:54.702Z,4.47
2023-08-11T00:49:27.182Z,4.30
2023-08-11T00:49:59.598Z,4.27
2023-08-11T00:50:31.800Z,4.00
2023-08-11T00:51:04.658Z,4.00
2023-08-11T00:51:39.373Z,4.17
2023-08-11T00:52:12.468Z,3.70
2023-08-11T00:52:45.981Z,4.07
2023-08-11T00:53:18.049Z,4.07
2023-08-11T00:53:51.403Z,3.63
2023-08-11T00:54:24.555Z,3.70
2023-08-11T00:54:57.784Z,4.07
2023-08-11T00:55:30.918Z,3.93
2023-08-11T00:56:04.080Z,3.70
2023-08-11T00:56:36.807Z,4.27
2023-08-11T00:57:09.236Z,4.13
2023-08-11T00:57:41.958Z,4.03
2023-08-11T00:58:14.735Z,3.83
2023-08-11T00:58:47.718Z,4.37
2023-08-11T00:59:22.249Z,4.70
2023-08-11T00:59:54.422Z,4.00
2023-08-11T01:00:30.435Z,3.60
2023-08-11T01:01:02.694Z,4.20
2023-08-11T01:01:34.812Z,4.67
2023-08-11T01:02:07.233Z,4.57
2023-08-11T01:02:40.818Z,4.10
2023-08-11T01:03:13.294Z,4.53
2023-08-11T01:03:45.472Z,4.30
2023-08-11T01:04:17.597Z,4.17
2023-08-11T01:04:49.683Z,4.30
2023-08-11T01:05:22.117Z,4.13
2023-08-11T01:06:04.497Z,4.03
2023-08-11T01:06:43.516Z,3.87
2023-08-11T01:07:22.810Z,4.10
2023-08-11T01:08:07.935Z,4.43
2023-08-11T01:08:54.058Z,4.40
2023-08-11T01:09:37.125Z,3.93
2023-08-11T01:10:21.823Z,4.03
2023-08-11T01:11:07.551Z,4.50
2023-08-11T01:11:46.272Z,4.33
2023-08-11T01:12:27.011Z,5.13
2023-08-11T01:13:09.271Z,4.90
2023-08-11T01:13:52.800Z,4.30
2023-08-11T01:14:43.855Z,4.37
2023-08-11T01:15:21.172Z,4.07
2023-08-11T01:15:58.950Z,4.43
2023-08-11T01:16:34.206Z,4.10
2023-08-11T01:17:10.976Z,4.00
2023-08-11T01:17:46.520Z,4.27
2023-08-11T01:18:20.922Z,4.60
2023-08-11T01:18:53.693Z,3.97
2023-08-11T01:19:29.081Z,3.97
2023-08-11T01:20:02.620Z,4.03
2023-08-11T01:20:37.042Z,4.00
2023-08-11T01:21:14.034Z,3.93
2023-08-11T01:21:49.594Z,4.00
2023-08-11T01:22:28.224Z,4.07
2023-08-11T01:23:01.747Z,3.80
2023-08-11T01:23:38.757Z,4.07
2023-08-11T01:24:11.410Z,3.63
2023-08-11T01:24:45.006Z,4.03
2023-08-11T01:25:17.252Z,4.03
2023-08-11T01:25:50.035Z,4.10
2023-08-11T01:26:22.979Z,4.23
2023-08-11T01:26:55.896Z,4.00
2023-08-11T01:27:30.203Z,4.57
2023-08-11T01:28:02.478Z,4.57
2023-08-11T01:28:35.663Z,4.70
2023-08-11T01:29:07.825Z,4.70
2023-08-11T01:29:40.165Z,4.23
2023-08-11T01:30:13.692Z,3.97
2023-08-11T01:30:45.849Z,4.10
2023-08-11T01:31:17.981Z,4.80
2023-08-11T01:31:50.005Z,4.90
2023-08-11T01:32:22.028Z,4.40
2023-08-11T01:32:54.128Z,4.30
2023-08-11T01:33:26.148Z,4.23
2023-08-11T01:33:58.253Z,4.33
2023-08-11T01:34:30.288Z,4.23
2023-08-11T01:35:05.432Z,4.30
2023-08-11T01:35:41.938Z,4.37
2023-08-11T01:36:14.645Z,4.50
2023-08-11T01:36:46.857Z,4.13
2023-08-11T01:37:18.905Z,4.17
2023-08-11T01:37:50.941Z,4.17
2023-08-11T01:38:22.969Z,4.07
2023-08-11T01:38:58.639Z,4.50
2023-08-11T01:39:31.615Z,4.43
2023-08-11T01:40:04.223Z,4.60
2023-08-11T01:40:36.315Z,4.77
2023-08-11T01:41:08.393Z,4.27
2023-08-11T01:41:40.918Z,4.23
2023-08-11T01:42:13.536Z,4.43
2023-08-11T01:42:54.921Z,4.23
2023-08-11T01:43:30.326Z,4.60
2023-08-11T01:44:02.792Z,4.33
2023-08-11T01:44:34.871Z,4.87
2023-08-11T01:45:09.543Z,4.40
2023-08-11T01:45:43.449Z,4.77
2023-08-11T01:46:15.537Z,4.73
2023-08-11T01:46:48.535Z,4.53
2023-08-11T01:47:21.613Z,4.30
2023-08-11T01:47:54.411Z,4.23
2023-08-11T01:48:28.486Z,4.50
2023-08-11T01:49:01.758Z,4.47
2023-08-11T01:49:34.006Z,4.67
2023-08-11T01:50:08.822Z,5.03
2023-08-11T01:50:42.515Z,4.40
2023-08-11T01:51:14.772Z,4.47
2023-08-11T01:51:46.822Z,4.70
2023-08-11T01:52:20.381Z,4.87
2023-08-11T01:52:53.972Z,4.83
2023-08-11T01:53:26.274Z,4.97
2023-08-11T01:53:59.811Z,4.80
2023-08-11T01:54:32.169Z,4.53
2023-08-11T01:55:05.291Z,4.57
2023-08-11T01:55:38.046Z,5.20
2023-08-11T01:56:11.377Z,4.67
2023-08-11T01:56:44.860Z,5.03
2023-08-11T01:57:18.776Z,5.10
2023-08-11T01:57:58.471Z,4.93
2023-08-11T01:58:32.521Z,4.83
2023-08-11T01:59:05.768Z,4.73
2023-08-11T01:59:37.842Z,4.67
2023-08-11T02:00:11.358Z,5.27
2023-08-11T02:00:43.477Z,5.20
2023-08-11T02:01:16.031Z,5.50
2023-08-11T02:01:48.192Z,5.23
2023-08-11T02:02:20.301Z,5.53
2023-08-11T02:02:52.507Z,5.47
2023-08-11T02:03:24.720Z,5.03
2023-08-11T02:03:56.881Z,5.10
2023-08-11T02:04:29.039Z,4.93
2023-08-11T02:05:01.069Z,5.23
2023-08-11T02:05:33.117Z,5.10
2023-08-11T02:06:06.174Z,5.00
2023-08-11T02:06:39.311Z,5.80
2023-08-11T02:07:11.363Z,5.87
2023-08-11T02:07:44.233Z,5.60
2023-08-11T02:08:16.287Z,5.57
2023-08-11T02:08:48.366Z,5.60
2023-08-11T02:09:21.781Z,5.63
2023-08-11T02:09:53.766Z,6.13
2023-08-11T02:10:26.009Z,5.53
2023-08-11T02:10:58.108Z,5.37
2023-08-11T02:11:30.625Z,5.53
2023-08-11T02:12:02.712Z,5.50
2023-08-11T02:12:34.999Z,5.50
2023-08-11T02:13:07.057Z,5.57
2023-08-11T02:13:39.056Z,5.43
2023-08-11T02:14:11.131Z,4.93
2023-08-11T02:14:43.172Z,5.20
2023-08-11T02:15:15.216Z,5.60
2023-08-11T02:15:47.312Z,5.60
2023-08-11T02:16:19.416Z,5.50
2023-08-11T02:16:51.613Z,5.27
2023-08-11T02:17:23.753Z,5.33
2023-08-11T02:17:56.622Z,5.53
2023-08-11T02:18:28.728Z,5.43
2023-08-11T02:19:00.852Z,5.57
2023-08-11T02:19:32.873Z,5.53
2023-08-11T02:20:06.077Z,5.50
2023-08-11T02:20:38.207Z,4.93
2023-08-11T02:21:10.541Z,5.23
2023-08-11T02:21:42.594Z,5.47
2023-08-11T02:22:14.704Z,5.10
2023-08-11T02:22:46.810Z,5.33
2023-08-11T02:23:18.923Z,5.73
2023-08-11T02:23:50.968Z,6.17
2023-08-11T02:24:24.436Z,5.83
2023-08-11T02:24:56.463Z,4.73
2023-08-11T02:25:28.628Z,4.80
2023-08-11T02:26:00.756Z,5.33
2023-08-11T02:26:32.933Z,4.80
2023-08-11T02:27:05.641Z,4.80
2023-08-11T02:27:37.899Z,5.50
2023-08-11T02:28:09.904Z,5.73
2023-08-11T02:28:41.952Z,5.60
2023-08-11T02:29:17.104Z,5.53
2023-08-11T02:29:49.185Z,5.20
2023-08-11T02:30:21.802Z,5.43
2023-08-11T02:30:53.863Z,5.47
2023-08-11T02:31:26.104Z,5.10
2023-08-11T02:31:58.411Z,5.43
2023-08-11T02:32:30.511Z,5.13
2023-08-11T02:33:02.591Z,5.53
2023-08-11T02:33:34.739Z,5.53
2023-08-11T02:34:06.770Z,5.60
2023-08-11T02:34:38.841Z,5.57
2023-08-11T02:35:10.884Z,5.73
2023-08-11T02:35:42.943Z,5.23
2023-08-11T02:36:15.283Z,5.27
2023-08-11T02:36:47.521Z,5.20
2023-08-11T02:37:19.562Z,5.27
2023-08-11T02:37:51.819Z,5.73
2023-08-11T02:38:23.860Z,5.47
2023-08-11T02:38:56.432Z,5.60
2023-08-11T02:39:30.593Z,6.10
2023-08-11T02:40:02.709Z,6.33
2023-08-11T02:40:34.777Z,5.80
2023-08-11T02:41:06.843Z,5.63
2023-08-11T02:41:38.934Z,5.77
2023-08-11T02:42:10.949Z,5.97
2023-08-11T02:42:45.510Z,5.93
2023-08-11T02:43:18.220Z,5.87
2023-08-11T02:43:50.226Z,5.53
2023-08-11T02:44:22.393Z,5.97
2023-08-11T02:44:54.479Z,5.77
2023-08-11T02:45:26.563Z,5.50
2023-08-11T02:45:58.646Z,5.60
2023-08-11T02:46:30.861Z,6.13
2023-08-11T02:47:02.943Z,5.83
2023-08-11T02:47:35.071Z,5.57
2023-08-11T02:48:07.419Z,5.27
2023-08-11T02:48:39.466Z,5.07
2023-08-11T02:49:11.551Z,5.63
2023-08-11T02:49:43.615Z,5.73
2023-08-11T02:50:15.670Z,6.20
2023-08-11T02:50:47.783Z,5.87
2023-08-11T02:51:19.900Z,6.00
2023-08-11T02:51:51.970Z,6.67
2023-08-11T02:52:24.084Z,6.67
2023-08-11T02:52:56.181Z,6.23
2023-08-11T02:53:28.235Z,5.83
2023-08-11T02:54:00.276Z,5.87
2023-08-11T02:54:33.657Z,5.60
2023-08-11T02:55:07.498Z,6.30
2023-08-11T02:55:39.514Z,5.83
2023-08-11T02:56:11.983Z,6.03
2023-08-11T02:56:47.851Z,6.43
2023-08-11T02:57:19.976Z,5.60
2023-08-11T02:57:52.078Z,5.60
2023-08-11T02:58:24.533Z,5.97
2023-08-11T02:58:56.592Z,5.80
2023-08-11T02:59:28.720Z,5.93
2023-08-11T03:00:01.040Z,5.53
2023-08-11T03:00:33.303Z,5.23
2023-08-11T03:01:05.393Z,5.57
2023-08-11T03:01:37.456Z,5.07
2023-08-11T03:02:09.947Z,4.63
2023-08-11T03:02:42.990Z,4.40
2023-08-11T03:03:15.205Z,4.93
2023-08-11T03:03:47.315Z,5.47
2023-08-11T03:04:19.350Z,5.30
2023-08-11T03:04:51.495Z,5.03
2023-08-11T03:05:23.616Z,5.17
2023-08-11T03:05:55.722Z,5.40
2023-08-11T03:06:27.747Z,5.37
2023-08-11T03:06:59.875Z,5.00
2023-08-11T03:07:31.950Z,5.23
2023-08-11T03:08:04.691Z,5.53
2023-08-11T03:08:36.706Z,5.33
2023-08-11T03:09:08.770Z,4.90
2023-08-11T03:09:42.160Z,5.00
2023-08-11T03:10:14.463Z,4.87
2023-08-11T03:10:56.003Z,4.83
2023-08-11T03:11:29.107Z,4.93
2023-08-11T03:12:01.275Z,5.40
2023-08-11T03:12:33.436Z,5.27
2023-08-11T03:13:05.507Z,5.23
2023-08-11T03:13:37.584Z,4.93
2023-08-11T03:14:09.694Z,4.97
2023-08-11T03:14:41.729Z,4.63
2023-08-11T03:15:13.871Z,5.00
2023-08-11T03:15:46.052Z,5.43
2023-08-11T03:16:18.184Z,4.83
2023-08-11T03:16:50.237Z,5.27
2023-08-11T03:17:22.384Z,5.40
2023-08-11T03:17:54.526Z,5.40
2023-08-11T03:18:26.622Z,5.40
2023-08-11T03:18:58.763Z,5.27
2023-08-11T03:19:30.763Z,5.30
2023-08-11T03:20:03.075Z,5.53
2023-08-11T03:20:35.240Z,5.27
2023-08-11T03:21:18.547Z,5.43
2023-08-11T03:21:51.694Z,5.43
2023-08-11T03:22:23.940Z,5.30
2023-08-11T03:22:55.989Z,5.37
2023-08-11T03:23:28.044Z,5.37
2023-08-11T03:24:00.189Z,5.07
2023-08-11T03:24:32.200Z,5.07
2023-08-11T03:25:06.448Z,5.03
2023-08-11T03:25:38.526Z,5.33
2023-08-11T03:26:10.609Z,5.40
2023-08-11T03:26:42.654Z,5.30
2023-08-11T03:27:14.908Z,5.37
2023-08-11T03:27:46.974Z,5.60
2023-08-11T03:28:18.969Z,5.47
2023-08-11T03:28:51.007Z,5.83
2023-08-11T03:29:23.081Z,6.00
2023-08-11T03:29:55.136Z,5.53
2023-08-11T03:30:27.267Z,5.33
2023-08-11T03:31:00.497Z,5.47
2023-08-11T03:31:33.347Z,5.57
2023-08-11T03:32:06.329Z,5.23
2023-08-11T03:32:38.871Z,5.40
2023-08-11T03:33:11.166Z,6.07
2023-08-11T03:33:43.201Z,6.03
2023-08-11T03:34:15.256Z,5.67
2023-08-11T03:34:47.708Z,5.37
2023-08-11T03:35:19.842Z,5.47
2023-08-11T03:35:51.941Z,5.17
2023-08-11T03:36:24.045Z,5.27
2023-08-11T03:36:56.164Z,5.17
2023-08-11T03:37:29.120Z,5.57
2023-08-11T03:38:01.354Z,5.40
2023-08-11T03:38:33.410Z,5.57
2023-08-11T03:39:05.730Z,5.43
2023-08-11T03:39:37.754Z,5.43
2023-08-11T03:40:11.572Z,5.37
2023-08-11T03:40:43.659Z,5.80
2023-08-11T03:41:15.880Z,5.27
2023-08-11T03:41:48.029Z,5.40
2023-08-11T03:42:20.158Z,5.70
2023-08-11T03:42:52.276Z,5.67
2023-08-11T03:43:24.335Z,5.03
2023-08-11T03:43:56.472Z,5.47
2023-08-11T03:44:28.645Z,5.57
2023-08-11T03:45:00.712Z,5.67
2023-08-11T03:45:32.729Z,5.47
2023-08-11T03:46:04.738Z,5.27
2023-08-11T03:46:36.769Z,5.33
2023-08-11T03:47:08.902Z,5.23
2023-08-11T03:47:42.197Z,5.30
2023-08-11T03:48:14.324Z,5.43
2023-08-11T03:48:49.250Z,5.50
2023-08-11T03:49:21.677Z,5.30
2023-08-11T03:49:53.787Z,4.87
2023-08-11T03:50:25.854Z,4.87
2023-08-11T03:51:00.118Z,5.00
2023-08-11T03:51:32.246Z,4.63
2023-08-11T03:52:04.616Z,5.37
2023-08-11T03:52:37.903Z,5.83
2023-08-11T03:53:10.000Z,6.03
2023-08-11T03:53:42.092Z,6.20
2023-08-11T03:54:14.426Z,6.53
2023-08-11T03:54:46.479Z,6.27
2023-08-11T03:55:20.231Z,6.07
2023-08-11T03:55:52.342Z,5.90
2023-08-11T03:56:24.395Z,5.43
2023-08-11T03:56:56.425Z,5.77
2023-08-11T03:57:28.493Z,5.80
2023-08-11T03:58:00.720Z,5.90
2023-08-11T03:58:36.264Z,6.57
2023-08-11T03:59:08.353Z,6.37
2023-08-11T03:59:40.440Z,6.33
2023-08-11T04:00:13.971Z,7.13
2023-08-11T04:00:46.436Z,6.63
2023-08-11T04:01:18.538Z,6.57
2023-08-11T04:01:50.649Z,6.67
2023-08-11T04:02:23.089Z,6.87
2023-08-11T04:02:55.344Z,6.73
2023-08-11T04:03:27.750Z,7.10
2023-08-11T04:04:00.374Z,6.50
2023-08-11T04:04:32.473Z,6.43
2023-08-11T04:05:04.811Z,6.57
2023-08-11T04:05:37.396Z,6.33
2023-08-11T04:06:10.009Z,6.37
2023-08-11T04:06:42.194Z,6.67
2023-08-11T04:07:14.246Z,6.40
2023-08-11T04:07:46.347Z,6.03
2023-08-11T04:08:18.355Z,6.80
2023-08-11T04:08:53.598Z,6.13
2023-08-11T04:09:25.703Z,6.37
2023-08-11T04:09:58.614Z,6.40
2023-08-11T04:10:35.175Z,6.07
2023-08-11T04:11:08.682Z,6.33
2023-08-11T04:11:40.849Z,5.93
2023-08-11T04:12:13.003Z,5.77
2023-08-11T04:12:45.093Z,6.37
2023-08-11T04:13:17.396Z,6.37
2023-08-11T04:13:49.949Z,6.47
2023-08-11T04:14:22.054Z,6.43
2023-08-11T04:14:54.520Z,6.03
2023-08-11T04:15:27.813Z,5.20
2023-08-11T04:16:00.429Z,5.13
2023-08-11T04:16:34.964Z,5.00
2023-08-11T04:17:07.079Z,5.97
2023-08-11T04:17:39.244Z,5.67
2023-08-11T04:18:14.782Z,5.37
2023-08-11T04:18:52.586Z,5.60
2023-08-11T04:19:25.008Z,6.40
2023-08-11T04:19:57.576Z,6.03
2023-08-11T04:20:29.974Z,5.93
2023-08-11T04:21:02.211Z,6.20
2023-08-11T04:21:34.965Z,6.27
2023-08-11T04:22:07.557Z,6.50
2023-08-11T04:22:40.865Z,6.73
2023-08-11T04:23:12.923Z,6.40
2023-08-11T04:23:45.723Z,6.00
2023-08-11T04:24:17.871Z,6.00
2023-08-11T04:24:50.343Z,6.53
2023-08-11T04:25:22.600Z,6.80
2023-08-11T04:25:59.453Z,5.90
2023-08-11T04:26:31.468Z,6.50
2023-08-11T04:27:03.938Z,6.70
2023-08-11T04:27:36.208Z,5.37
2023-08-11T04:28:08.576Z,5.40
2023-08-11T04:28:41.061Z,5.70
2023-08-11T04:29:13.154Z,6.13
2023-08-11T04:29:45.272Z,6.20
2023-08-11T04:30:17.382Z,5.97
2023-08-11T04:30:49.631Z,6.43
2023-08-11T04:31:21.978Z,6.27
2023-08-11T04:31:54.150Z,5.93
2023-08-11T04:32:26.580Z,5.70
2023-08-11T04:32:58.937Z,5.83
2023-08-11T04:33:31.325Z,5.87
2023-08-11T04:34:03.822Z,5.73
2023-08-11T04:34:36.022Z,5.93
2023-08-11T04:35:08.708Z,5.93
2023-08-11T04:35:40.965Z,5.77
2023-08-11T04:36:13.120Z,6.07
2023-08-11T04:36:45.195Z,6.10
2023-08-11T04:37:19.154Z,5.83
2023-08-11T04:37:54.559Z,5.93
2023-08-11T04:38:26.659Z,5.60
2023-08-11T04:38:58.905Z,6.03
2023-08-11T04:39:31.429Z,5.87
2023-08-11T04:40:04.614Z,5.63
2023-08-11T04:40:36.829Z,5.97
2023-08-11T04:41:10.340Z,6.03
2023-08-11T04:41:42.680Z,6.30
2023-08-11T04:42:14.920Z,6.33
2023-08-11T04:42:47.443Z,5.67
2023-08-11T04:43:20.181Z,5.43
2023-08-11T04:43:52.429Z,5.80
2023-08-11T04:44:24.467Z,6.13
2023-08-11T04:44:56.495Z,6.47
2023-08-11T04:45:28.626Z,6.27
2023-08-11T04:46:00.739Z,6.90
2023-08-11T04:46:33.332Z,7.13
2023-08-11T04:47:05.690Z,6.23
2023-08-11T04:47:38.144Z,6.23
2023-08-11T04:48:10.396Z,6.63
2023-08-11T04:48:42.507Z,6.77
2023-08-11T04:49:14.650Z,6.93
2023-08-11T04:49:46.690Z,6.67
2023-08-11T04:50:18.949Z,7.10
2023-08-11T04:50:51.688Z,6.33
2023-08-11T04:51:24.095Z,6.23
2023-08-11T04:51:56.143Z,6.43
2023-08-11T04:52:28.201Z,6.67
2023-08-11T04:53:00.718Z,6.73
2023-08-11T04:53:32.967Z,7.17
2023-08-11T04:54:05.520Z,7.00
2023-08-11T04:54:37.594Z,7.13
2023-08-11T04:55:10.446Z,6.53
2023-08-11T04:55:42.827Z,6.83
2023-08-11T04:56:16.228Z,7.00
2023-08-11T04:56:48.290Z,7.07
2023-08-11T04:57:20.873Z,7.13
2023-08-11T04:57:53.105Z,6.77
2023-08-11T04:58:25.567Z,6.83
2023-08-11T04:58:57.621Z,7.23
2023-08-11T04:59:29.643Z,7.10
2023-08-11T05:00:03.423Z,7.13
2023-08-11T05:00:37.497Z,6.53
2023-08-11T05:01:09.986Z,6.80
2023-08-11T05:01:42.067Z,6.70
2023-08-11T05:02:14.589Z,6.87
2023-08-11T05:02:47.820Z,7.00
2023-08-11T05:03:20.130Z,6.67
2023-08-11T05:03:52.401Z,6.73
2023-08-11T05:04:24.533Z,6.43
2023-08-11T05:04:56.894Z,6.30
2023-08-11T05:05:29.019Z,6.33
2023-08-11T05:06:01.058Z,6.60
2023-08-11T05:06:33.195Z,6.57
2023-08-11T05:07:05.775Z,6.90
2023-08-11T05:07:38.336Z,6.70
2023-08-11T05:08:10.376Z,6.77
2023-08-11T05:08:42.425Z,6.70
2023-08-11T05:09:14.481Z,6.80
2023-08-11T05:09:46.535Z,6.87
2023-08-11T05:10:21.413Z,6.53
2023-08-11T05:10:53.727Z,6.83
2023-08-11T05:11:29.734Z,6.73
2023-08-11T05:12:02.239Z,6.73
2023-08-11T05:12:34.764Z,6.90
2023-08-11T05:13:06.781Z,6.93
2023-08-11T05:13:38.863Z,7.07
2023-08-11T05:14:11.025Z,6.67
2023-08-11T05:14:43.335Z,6.80
2023-08-11T05:15:15.473Z,7.23
2023-08-11T05:15:47.571Z,6.93
2023-08-11T05:16:19.685Z,6.67
2023-08-11T05:16:51.837Z,6.70
2023-08-11T05:17:24.098Z,7.07
2023-08-11T05:17:56.347Z,6.87
2023-08-11T05:18:37.862Z,6.53
2023-08-11T05:19:14.083Z,7.20
2023-08-11T05:19:46.244Z,6.93
2023-08-11T05:20:18.410Z,7.23
2023-08-11T05:20:50.487Z,7.40
2023-08-11T05:21:22.545Z,6.93
2023-08-11T05:21:55.115Z,6.77
2023-08-11T05:22:27.469Z,6.57
2023-08-11T05:23:01.470Z,6.57
2023-08-11T05:23:34.087Z,7.00
2023-08-11T05:24:07.531Z,7.10
2023-08-11T05:24:40.001Z,6.73
2023-08-11T05:25:12.233Z,6.90
2023-08-11T05:25:44.288Z,7.40
2023-08-11T05:26:16.316Z,7.20
2023-08-11T05:26:50.571Z,6.73
2023-08-11T05:27:22.886Z,7.23
2023-08-11T05:27:55.128Z,6.93
2023-08-11T05:28:27.435Z,7.07
2023-08-11T05:29:00.496Z,7.00
2023-08-11T05:29:33.701Z,7.00
2023-08-11T05:30:08.145Z,7.37
2023-08-11T05:30:41.064Z,6.57
2023-08-11T05:31:13.297Z,6.20
2023-08-11T05:31:45.608Z,6.47
2023-08-11T05:32:18.393Z,6.73
2023-08-11T05:32:50.546Z,7.33
2023-08-11T05:33:22.891Z,6.67
2023-08-11T05:33:55.968Z,7.00
2023-08-11T05:34:28.517Z,7.03
2023-08-11T05:35:00.837Z,6.93
2023-08-11T05:35:33.034Z,6.87
2023-08-11T05:36:05.866Z,7.27
2023-08-11T05:36:38.325Z,7.13
2023-08-11T05:37:10.654Z,6.80
2023-08-11T05:37:42.892Z,6.73
2023-08-11T05:38:14.978Z,6.33
2023-08-11T05:38:47.115Z,6.27
2023-08-11T05:39:19.137Z,6.57
2023-08-11T05:39:51.497Z,6.93
2023-08-11T05:40:23.710Z,6.20
2023-08-11T05:40:55.789Z,6.53
2023-08-11T05:41:27.836Z,6.37
2023-08-11T05:42:01.289Z,5.87
2023-08-11T05:42:33.367Z,6.30
2023-08-11T05:43:05.499Z,5.97
2023-08-11T05:43:37.784Z,6.63
2023-08-11T05:44:09.858Z,6.73
2023-08-11T05:44:41.921Z,6.07
2023-08-11T05:45:16.951Z,6.07
2023-08-11T05:45:50.269Z,6.53
2023-08-11T05:46:22.485Z,6.43
2023-08-11T05:46:54.568Z,6.43
2023-08-11T05:47:26.723Z,6.60
2023-08-11T05:47:58.801Z,6.33
2023-08-11T05:48:30.914Z,6.33
2023-08-11T05:49:03.046Z,6.77
2023-08-11T05:49:35.078Z,6.57
2023-08-11T05:50:08.235Z,6.57
2023-08-11T05:50:45.379Z,6.53
2023-08-11T05:51:17.448Z,6.50
2023-08-11T05:51:49.503Z,6.20
2023-08-11T05:52:21.581Z,6.83
2023-08-11T05:52:53.635Z,6.67
2023-08-11T05:53:25.896Z,6.17
2023-08-11T05:53:58.111Z,6.57
2023-08-11T05:54:30.162Z,6.03
2023-08-11T05:55:02.336Z,6.40
2023-08-11T05:55:34.440Z,6.20
2023-08-11T05:56:06.564Z,6.33
2023-08-11T05:56:38.838Z,6.37
2023-08-11T05:57:12.453Z,6.50
2023-08-11T05:57:44.642Z,6.17
2023-08-11T05:58:16.751Z,6.40
2023-08-11T05:58:48.828Z,6.43
2023-08-11T05:59:21.039Z,6.10
2023-08-11T05:59:53.131Z,6.50
2023-08-11T06:00:25.424Z,6.20
2023-08-11T06:00:57.619Z,5.70
2023-08-11T06:01:29.670Z,6.07
2023-08-11T06:02:01.782Z,5.87
2023-08-11T06:02:33.957Z,6.20
2023-08-11T06:03:06.121Z,6.60
2023-08-11T06:03:38.297Z,6.80
2023-08-11T06:04:10.434Z,5.90
2023-08-11T06:04:42.818Z,6.50
2023-08-11T06:05:14.885Z,6.17
2023-08-11T06:05:46.935Z,6.33
2023-08-11T06:06:19.077Z,6.20
2023-08-11T06:06:51.066Z,6.60
2023-08-11T06:07:23.092Z,6.83
2023-08-11T06:08:05.269Z,6.17
2023-08-11T06:08:38.393Z,6.23
2023-08-11T06:09:10.655Z,6.13
2023-08-11T06:09:42.743Z,6.57
2023-08-11T06:10:15.020Z,6.00
2023-08-11T06:10:47.014Z,6.33
2023-08-11T06:11:19.147Z,6.50
2023-08-11T06:11:51.265Z,6.43
2023-08-11T06:12:25.506Z,6.33
2023-08-11T06:12:57.909Z,6.53
2023-08-11T06:13:29.966Z,6.87
2023-08-11T06:14:02.051Z,6.40
2023-08-11T06:14:34.131Z,6.00
2023-08-11T06:15:06.928Z,6.17
2023-08-11T06:15:39.008Z,6.17
2023-08-11T06:16:11.139Z,6.40
2023-08-11T06:16:43.205Z,6.47
2023-08-11T06:17:15.580Z,5.90
2023-08-11T06:17:48.275Z,5.83
2023-08-11T06:18:20.343Z,6.07
2023-08-11T06:18:53.591Z,6.20
2023-08-11T06:19:25.783Z,5.77
2023-08-11T06:19:57.872Z,6.17
2023-08-11T06:20:40.071Z,5.50
2023-08-11T06:21:12.872Z,6.07
2023-08-11T06:21:45.084Z,5.50
2023-08-11T06:22:17.204Z,5.77
2023-08-11T06:22:50.274Z,6.00
2023-08-11T06:23:22.483Z,6.10
2023-08-11T06:23:55.049Z,6.20
2023-08-11T06:24:27.116Z,5.93
2023-08-11T06:24:59.244Z,5.83
2023-08-11T06:25:31.346Z,5.67
2023-08-11T06:26:03.411Z,5.90
2023-08-11T06:26:35.449Z,5.20
2023-08-11T06:27:07.896Z,5.43
2023-08-11T06:27:41.606Z,5.03
2023-08-11T06:28:13.852Z,4.77
2023-08-11T06:28:45.904Z,5.17
2023-08-11T06:29:17.993Z,4.83
2023-08-11T06:29:50.198Z,5.63
2023-08-11T06:30:22.435Z,5.63
2023-08-11T06:30:56.373Z,4.93
2023-08-11T06:31:29.790Z,5.30
2023-08-11T06:32:01.983Z,5.67
2023-08-11T06:32:34.072Z,4.97
2023-08-11T06:33:06.364Z,5.10
2023-08-11T06:33:38.454Z,5.37
2023-08-11T06:34:10.496Z,5.43
2023-08-11T06:34:42.528Z,5.10
2023-08-11T06:35:14.630Z,4.80
2023-08-11T06:35:46.738Z,4.50
2023-08-11T06:36:18.844Z,4.57
2023-08-11T06:36:50.945Z,4.50
2023-08-11T06:37:22.981Z,5.00
2023-08-11T06:37:55.107Z,4.63
2023-08-11T06:38:27.140Z,4.27
2023-08-11T06:38:59.141Z,3.77
2023-08-11T06:39:31.294Z,3.83
2023-08-11T06:40:03.691Z,4.53
2023-08-11T06:40:36.131Z,4.77
2023-08-11T06:41:08.175Z,4.57
2023-08-11T06:41:40.528Z,4.13
2023-08-11T06:42:12.588Z,4.23
2023-08-11T06:42:45.958Z,4.30
2023-08-11T06:43:18.309Z,4.67
2023-08-11T06:43:50.533Z,3.87
2023-08-11T06:44:22.643Z,4.47
2023-08-11T06:44:54.740Z,4.73
2023-08-11T06:45:26.955Z,4.53
2023-08-11T06:46:01.235Z,4.73
2023-08-11T06:46:33.799Z,4.13
2023-08-11T06:47:06.386Z,4.77
2023-08-11T06:47:38.754Z,4.70
2023-08-11T06:48:10.858Z,4.57
2023-08-11T06:48:43.001Z,3.67
2023-08-11T06:49:15.098Z,4.43
2023-08-11T06:49:47.155Z,4.67
2023-08-11T06:50:19.431Z,4.67
2023-08-11T06:50:51.519Z,4.27
2023-08-11T06:51:23.606Z,4.67
2023-08-11T06:51:55.759Z,4.80
2023-08-11T06:52:27.911Z,4.30
2023-08-11T06:53:00.748Z,4.43
2023-08-11T06:53:32.921Z,4.40
2023-08-11T06:54:05.390Z,4.37
2023-08-11T06:54:37.653Z,4.40
2023-08-11T06:55:09.925Z,4.43
2023-08-11T06:55:42.063Z,4.40
2023-08-11T06:56:14.239Z,3.97
2023-08-11T06:56:46.345Z,4.27
2023-08-11T06:57:19.827Z,4.03
2023-08-11T06:57:53.714Z,4.27
2023-08-11T06:58:26.720Z,4.70
2023-08-11T06:58:58.945Z,4.37
2023-08-11T06:59:31.291Z,4.27
2023-08-11T07:00:03.743Z,4.37
2023-08-11T07:00:36.504Z,4.60
2023-08-11T07:01:08.594Z,4.20
2023-08-11T07:01:41.099Z,4.17
2023-08-11T07:02:13.252Z,4.10
2023-08-11T07:02:45.462Z,4.10
2023-08-11T07:03:17.610Z,4.37
2023-08-11T07:03:49.756Z,4.23
2023-08-11T07:04:21.815Z,4.50
2023-08-11T07:04:53.901Z,4.50
2023-08-11T07:05:25.914Z,4.53
2023-08-11T07:05:58.134Z,4.53
2023-08-11T07:06:30.146Z,4.47
2023-08-11T07:07:02.174Z,4.83
2023-08-11T07:07:34.341Z,5.03
2023-08-11T07:08:06.672Z,4.60
2023-08-11T07:08:38.882Z,4.50
2023-08-11T07:09:11.593Z,4.43
2023-08-11T07:09:43.627Z,4.13
2023-08-11T07:10:16.080Z,4.63
2023-08-11T07:10:58.158Z,4.67
2023-08-11T07:11:30.422Z,5.33
2023-08-11T07:12:02.648Z,5.30
2023-08-11T07:12:35.201Z,5.30
2023-08-11T07:13:08.808Z,5.33
2023-08-11T07:13:41.160Z,4.73
2023-08-11T07:14:13.745Z,4.87
2023-08-11T07:14:45.877Z,4.67
2023-08-11T07:15:18.071Z,4.43
2023-08-11T07:15:50.088Z,4.20
2023-08-11T07:16:22.260Z,4.50
2023-08-11T07:16:54.707Z,5.03